Time;durP1;ratioP1;P1;durP2;ratioP2;P2;SDS_P1;SDS_P2;PMS_P1;PMS_P2;Temp;Humidity;BMP_temperature;BMP_pressure;BME280_temperature;BME280_humidity;BME280_pressure;Samples;Min_cycle;Max_cycle;Signal;HPM_P1;HPM_P2
2022/08/13 00:00:39;;;;;;;1.73;0.70;;;24.10;96.70;;;;;;4962075;28;20047;-81
2022/08/13 00:03:18;;;;;;;2.22;0.70;;;24.00;96.70;;;;;;4941846;28;20081;-81
2022/08/13 00:06:10;;;;;;;9.05;2.53;;;24.10;96.70;;;;;;4962698;28;20070;-82
2022/08/13 00:08:55;;;;;;;3.65;1.40;;;24.20;96.70;;;;;;4964024;28;20058;-81
2022/08/13 00:14:31;;;;;;;4.00;1.00;;;24.40;96.70;;;;;;4964558;28;20073;-81
2022/08/13 00:17:07;;;;;;;2.55;0.90;;;24.50;96.70;;;;;;4951773;28;20047;-81
2022/08/13 00:19:38;;;;;;;2.58;1.20;;;24.50;96.70;;;;;;4953939;28;20364;-80
2022/08/13 00:22:08;;;;;;;2.70;1.27;;;24.50;96.70;;;;;;4959679;28;20118;-81
2022/08/13 00:24:57;;;;;;;2.30;1.30;;;24.60;96.70;;;;;;4949340;28;20051;-81
2022/08/13 00:27:28;;;;;;;2.30;1.15;;;24.50;96.70;;;;;;4949747;28;20526;-81
2022/08/13 00:30:18;;;;;;;2.28;1.50;;;24.60;96.70;;;;;;4964745;28;20141;-81
2022/08/13 00:33:00;;;;;;;2.97;1.10;;;24.50;96.70;;;;;;4952422;28;20178;-81
2022/08/13 00:35:28;;;;;;;2.45;1.20;;;24.30;96.70;;;;;;4958087;28;20083;-81
2022/08/13 00:38:11;;;;;;;3.55;1.08;;;24.30;96.70;;;;;;4966613;28;20476;-81
2022/08/13 00:40:42;;;;;;;4.55;1.40;;;24.30;96.70;;;;;;4958968;28;20049;-82
2022/08/13 00:43:26;;;;;;;1.77;1.15;;;24.30;96.70;;;;;;4965754;28;20046;-82
2022/08/13 00:46:00;;;;;;;2.25;1.08;;;24.20;96.70;;;;;;4961160;28;20047;-81
2022/08/13 00:48:46;;;;;;;2.58;1.10;;;24.20;96.70;;;;;;4957279;28;20465;-82
2022/08/13 00:51:23;;;;;;;4.15;1.70;;;24.30;96.70;;;;;;4949766;28;20535;-82
2022/08/13 00:54:15;;;;;;;4.50;1.30;;;24.10;96.70;;;;;;4962382;28;20054;-81
2022/08/13 00:56:45;;;;;;;1.67;1.00;;;24.00;96.70;;;;;;4965961;28;20046;-82
2022/08/13 00:59:14;;;;;;;2.47;1.05;;;24.00;96.70;;;;;;4964792;28;20035;-81
2022/08/13 01:01:45;;;;;;;2.83;1.38;;;24.10;96.70;;;;;;4961356;28;20043;-81
2022/08/13 01:04:21;;;;;;;2.10;0.82;;;24.20;96.70;;;;;;4961716;28;20071;-81
2022/08/13 01:06:56;;;;;;;2.25;0.82;;;24.20;96.70;;;;;;4959232;28;20098;-82
2022/08/13 01:09:29;;;;;;;2.08;0.95;;;24.30;96.70;;;;;;4964977;28;20508;-81
2022/08/13 01:12:20;;;;;;;2.28;0.95;;;24.00;96.70;;;;;;4955994;28;20054;-81
2022/08/13 01:14:56;;;;;;;2.03;1.10;;;23.90;96.70;;;;;;4980565;28;20133;-81
2022/08/13 01:17:27;;;;;;;1.08;0.77;;;23.70;96.70;;;;;;4963106;28;20575;-81
2022/08/13 01:20:22;;;;;;;2.63;1.00;;;23.60;96.70;;;;;;4941789;28;20062;-81
2022/08/13 01:23:04;;;;;;;1.98;0.80;;;23.30;96.70;;;;;;4960219;28;20542;-81
2022/08/13 01:25:36;;;;;;;4.25;1.13;;;23.40;96.70;;;;;;4950689;28;20059;-80
2022/08/13 01:28:22;;;;;;;1.90;0.98;;;23.30;96.70;;;;;;4965477;28;20113;-81
2022/08/13 01:30:53;;;;;;;1.45;1.05;;;23.30;96.70;;;;;;4949792;28;20063;-81
2022/08/13 01:33:21;;;;;;;2.30;1.10;;;23.40;96.70;;;;;;4962408;28;20062;-81
2022/08/13 01:35:52;;;;;;;1.00;0.90;;;23.30;96.70;;;;;;4959699;28;20039;-81
2022/08/13 01:38:24;;;;;;;1.98;0.85;;;23.20;96.70;;;;;;4959465;28;20050;-80
2022/08/13 01:40:54;;;;;;;1.85;1.00;;;23.20;96.70;;;;;;4962937;28;20049;-80
2022/08/13 01:43:28;;;;;;;2.47;1.40;;;23.20;96.70;;;;;;4951769;28;20051;-80
2022/08/13 01:46:16;;;;;;;2.63;1.05;;;23.40;96.70;;;;;;4947326;28;20504;-79
2022/08/13 01:51:36;;;;;;;3.38;1.30;;;23.60;96.70;;;;;;4965130;28;20080;-81
2022/08/13 01:54:12;;;;;;;2.38;1.10;;;23.50;96.70;;;;;;4965971;28;20050;-80
2022/08/13 01:57:01;;;;;;;4.35;1.23;;;23.30;96.70;;;;;;4965305;28;20508;-81
2022/08/13 01:59:32;;;;;;;1.85;1.10;;;23.40;96.70;;;;;;4966858;28;20057;-80
2022/08/13 02:02:21;;;;;;;2.95;1.13;;;23.40;96.70;;;;;;4966233;28;20051;-80
2022/08/13 02:05:10;;;;;;;2.53;1.15;;;23.60;96.70;;;;;;4958859;28;20163;-81
2022/08/13 02:07:58;;;;;;;1.80;1.00;;;23.70;96.70;;;;;;4964439;28;20050;-79
2022/08/13 02:10:31;;;;;;;1.88;1.27;;;23.70;96.70;;;;;;4965191;28;20059;-81
2022/08/13 02:12:59;;;;;;;2.65;1.05;;;23.60;96.70;;;;;;4966434;28;20053;-80
2022/08/13 02:15:28;;;;;;;3.78;1.33;;;23.60;96.70;;;;;;4962682;28;20584;-80
2022/08/13 02:18:14;;;;;;;2.72;1.17;;;23.70;96.70;;;;;;4966886;28;20079;-80
2022/08/13 02:20:46;;;;;;;3.00;1.30;;;23.60;96.70;;;;;;4964045;28;20039;-79
2022/08/13 02:23:19;;;;;;;1.70;0.90;;;23.60;96.70;;;;;;4959929;28;20892;-80
2022/08/13 02:26:09;;;;;;;4.18;1.17;;;23.60;96.70;;;;;;4971453;28;20047;-80
2022/08/13 02:28:39;;;;;;;1.77;0.90;;;23.50;96.70;;;;;;4966294;28;20046;-80
2022/08/13 02:31:09;;;;;;;2.08;1.20;;;23.40;96.70;;;;;;4951645;28;20079;-80
2022/08/13 02:33:58;;;;;;;2.97;1.23;;;23.20;96.70;;;;;;4962889;28;20054;-81
2022/08/13 02:36:30;;;;;;;2.38;1.02;;;23.40;96.70;;;;;;4963329;28;20063;-81
2022/08/13 02:39:00;;;;;;;2.75;1.10;;;23.40;96.70;;;;;;4957625;28;20043;-79
2022/08/13 02:41:40;;;;;;;1.73;1.20;;;23.40;96.70;;;;;;4964654;28;20051;-80
2022/08/13 02:44:20;;;;;;;2.53;0.93;;;23.10;96.70;;;;;;4967642;28;20054;-80
2022/08/13 02:47:05;;;;;;;2.03;1.35;;;23.00;96.70;;;;;;4949840;28;20592;-80
2022/08/13 02:49:35;;;;;;;3.30;1.20;;;23.10;96.70;;;;;;4966605;28;20074;-81
2022/08/13 02:52:13;;;;;;;2.55;1.55;;;23.20;96.70;;;;;;4949274;28;20054;-80
2022/08/13 02:54:45;;;;;;;1.08;0.90;;;23.00;96.70;;;;;;4960670;28;20046;-81
2022/08/13 02:57:25;;;;;;;3.10;1.50;;;23.00;96.70;;;;;;4966093;28;20220;-80
2022/08/13 02:59:55;;;;;;;1.27;1.17;;;23.20;96.70;;;;;;4960131;28;20518;-81
2022/08/13 03:02:37;;;;;;;2.58;1.33;;;23.20;96.70;;;;;;4961955;28;20063;-81
2022/08/13 03:05:08;;;;;;;2.50;1.23;;;23.10;96.70;;;;;;4962669;28;20419;-80
2022/08/13 03:07:43;;;;;;;2.35;1.23;;;23.10;96.70;;;;;;4948443;28;20078;-80
2022/08/13 03:10:22;;;;;;;2.25;1.35;;;23.20;96.70;;;;;;4966210;28;20065;-81
2022/08/13 03:13:15;;;;;;;1.90;1.13;;;23.20;96.70;;;;;;4963692;28;20093;-80
2022/08/13 03:15:53;;;;;;;3.75;1.55;;;23.30;96.70;;;;;;4966938;28;20051;-81
2022/08/13 03:18:30;;;;;;;2.58;1.40;;;23.20;96.70;;;;;;4960264;28;20043;-80
2022/08/13 03:21:19;;;;;;;2.60;1.08;;;23.10;96.70;;;;;;4966619;28;20050;-81
2022/08/13 03:24:09;;;;;;;2.42;1.15;;;23.00;96.70;;;;;;4966916;28;20042;-80
2022/08/13 03:26:38;;;;;;;1.80;1.48;;;23.10;96.70;;;;;;4946443;28;20683;-80
2022/08/13 03:29:08;;;;;;;1.83;1.35;;;23.20;96.70;;;;;;4959639;28;20829;-81
2022/08/13 03:31:37;;;;;;;4.38;1.30;;;23.30;96.70;;;;;;4966949;28;20043;-80
2022/08/13 03:34:21;;;;;;;4.47;1.00;;;23.10;96.70;;;;;;4962534;28;20505;-80
2022/08/13 03:36:53;;;;;;;2.95;1.15;;;23.30;96.70;;;;;;4964297;28;20222;-81
2022/08/13 03:39:25;;;;;;;3.92;1.00;;;23.30;96.70;;;;;;4965631;28;20051;-81
2022/08/13 03:41:55;;;;;;;1.65;0.98;;;23.30;96.70;;;;;;4964985;28;20105;-81
2022/08/13 03:44:29;;;;;;;4.88;1.20;;;23.10;96.70;;;;;;4965057;28;20042;-80
2022/08/13 03:47:03;;;;;;;2.45;1.08;;;23.10;96.70;;;;;;4956530;28;20650;-80
2022/08/13 03:49:51;;;;;;;2.65;1.38;;;23.20;96.70;;;;;;4961412;28;20424;-81
2022/08/13 03:52:19;;;;;;;2.13;1.10;;;23.10;96.70;;;;;;4965257;28;20047;-80
2022/08/13 03:55:06;;;;;;;1.48;1.00;;;23.10;96.70;;;;;;4960712;28;20066;-80
2022/08/13 03:57:40;;;;;;;2.22;1.33;;;23.00;96.70;;;;;;4974022;28;20071;-80
2022/08/13 04:00:30;;;;;;;1.83;1.17;;;23.00;96.70;;;;;;4950664;28;20053;-80
2022/08/13 04:03:12;;;;;;;1.95;1.02;;;23.00;96.70;;;;;;4964123;28;20055;-81
2022/08/13 04:05:42;;;;;;;1.88;1.27;;;22.90;96.70;;;;;;4948775;28;20138;-80
2022/08/13 04:08:27;;;;;;;3.38;1.20;;;23.00;96.70;;;;;;4963887;28;20507;-81
2022/08/13 04:10:56;;;;;;;1.55;1.23;;;22.90;96.70;;;;;;4962293;28;20227;-80
2022/08/13 04:13:25;;;;;;;1.75;1.20;;;22.90;96.70;;;;;;4961477;28;20046;-81
2022/08/13 04:16:18;;;;;;;1.70;1.40;;;23.00;96.70;;;;;;4965470;28;20054;-80
2022/08/13 04:18:48;;;;;;;3.28;1.17;;;23.00;96.70;;;;;;4959491;28;20094;-81
2022/08/13 04:21:18;;;;;;;3.10;1.30;;;23.10;96.70;;;;;;4941992;28;20039;-80
2022/08/13 04:23:51;;;;;;;1.63;0.90;;;23.10;96.70;;;;;;4964601;28;20047;-80
2022/08/13 04:26:24;;;;;;;2.65;1.20;;;23.10;96.70;;;;;;4957738;28;20078;-80
2022/08/13 04:29:01;;;;;;;1.45;1.00;;;23.10;96.70;;;;;;4964167;28;20042;-80
2022/08/13 04:31:32;;;;;;;2.88;1.00;;;23.00;96.70;;;;;;4958650;28;20051;-80
2022/08/13 04:34:19;;;;;;;2.03;1.20;;;23.10;96.70;;;;;;4965011;28;20047;-80
2022/08/13 04:37:07;;;;;;;1.90;0.82;;;23.10;96.70;;;;;;4961232;28;20117;-81
2022/08/13 04:39:37;;;;;;;1.88;1.30;;;23.00;96.70;;;;;;4961886;28;20051;-79
2022/08/13 04:42:25;;;;;;;2.08;1.20;;;23.00;96.70;;;;;;4959936;28;20057;-80
2022/08/13 04:45:05;;;;;;;1.25;0.95;;;23.10;96.70;;;;;;4963085;28;20078;-81
2022/08/13 04:47:42;;;;;;;2.17;1.17;;;23.00;96.70;;;;;;4962752;28;20435;-80
2022/08/13 04:50:14;;;;;;;1.42;1.10;;;22.90;96.70;;;;;;4961026;28;20493;-80
2022/08/13 04:52:46;;;;;;;2.60;0.93;;;22.90;96.70;;;;;;4959563;28;20508;-81
2022/08/13 04:55:17;;;;;;;2.58;0.93;;;23.00;96.70;;;;;;4960697;28;20516;-80
2022/08/13 04:57:46;;;;;;;3.75;0.90;;;23.00;96.70;;;;;;4959774;28;20042;-80
2022/08/13 05:00:29;;;;;;;2.03;1.30;;;22.80;96.70;;;;;;4950688;28;20057;-80
2022/08/13 05:03:07;;;;;;;1.92;1.00;;;22.70;96.70;;;;;;4948061;28;20050;-81
2022/08/13 05:05:36;;;;;;;3.00;1.50;;;22.70;96.70;;;;;;4964674;28;20129;-81
2022/08/13 05:08:11;;;;;;;1.55;0.90;;;22.70;96.70;;;;;;4962704;28;20415;-80
2022/08/13 05:10:39;;;;;;;2.35;1.27;;;23.00;96.70;;;;;;4948324;28;20050;-81
2022/08/13 05:13:20;;;;;;;2.67;1.13;;;23.00;96.70;;;;;;4958372;28;20497;-81
2022/08/13 05:15:49;;;;;;;2.17;1.20;;;23.00;96.70;;;;;;4954581;28;20424;-81
2022/08/13 05:18:19;;;;;;;3.35;1.13;;;23.00;96.70;;;;;;4961269;28;20106;-81
2022/08/13 05:20:59;;;;;;;2.78;1.77;;;23.20;96.70;;;;;;4965773;28;20135;-81
2022/08/13 05:23:34;;;;;;;1.38;1.00;;;23.20;96.70;;;;;;4960915;28;20055;-81
2022/08/13 05:26:23;;;;;;;2.45;1.50;;;23.00;96.70;;;;;;4963247;28;20054;-81
2022/08/13 05:29:13;;;;;;;4.30;1.60;;;23.10;96.70;;;;;;4961492;28;20541;-81
2022/08/13 05:31:40;;;;;;;1.98;1.52;;;23.00;96.70;;;;;;4960762;28;20081;-81
2022/08/13 05:34:28;;;;;;;1.60;1.10;;;22.80;96.70;;;;;;4962764;28;20062;-81
2022/08/13 05:36:58;;;;;;;3.60;1.17;;;22.80;96.70;;;;;;4964911;28;20049;-81
2022/08/13 05:39:47;;;;;;;2.45;0.98;;;22.90;96.70;;;;;;4953550;28;20050;-81
2022/08/13 05:42:20;;;;;;;2.60;1.40;;;23.00;96.70;;;;;;4943248;28;20055;-81
2022/08/13 05:44:56;;;;;;;1.88;1.35;;;23.10;96.70;;;;;;4959569;28;20050;-81
2022/08/13 05:47:27;;;;;;;2.33;1.50;;;22.90;96.70;;;;;;4959879;28;20039;-80
2022/08/13 05:50:13;;;;;;;4.47;1.85;;;22.90;96.70;;;;;;4964870;28;20043;-81
2022/08/13 05:52:45;;;;;;;3.78;1.40;;;23.10;96.70;;;;;;4973838;28;20398;-82
2022/08/13 05:55:18;;;;;;;4.68;1.30;;;23.10;96.70;;;;;;4956686;28;20063;-77
2022/08/13 05:58:08;;;;;;;2.72;1.60;;;23.00;96.70;;;;;;4964118;28;20116;-83
2022/08/13 06:03:43;;;;;;;2.05;1.83;;;23.20;96.70;;;;;;4953395;28;20504;-81
2022/08/13 06:06:32;;;;;;;1.70;1.50;;;23.30;96.70;;;;;;4963093;28;20106;-82
2022/08/13 06:09:04;;;;;;;3.60;1.90;;;23.40;96.70;;;;;;4945913;28;20079;-81
2022/08/13 06:11:38;;;;;;;2.67;1.73;;;23.40;96.70;;;;;;4963872;28;20130;-78
2022/08/13 06:14:33;;;;;;;3.20;1.38;;;23.50;96.70;;;;;;4961655;28;20050;-77
2022/08/13 06:17:06;;;;;;;1.77;1.50;;;23.50;96.70;;;;;;4959180;28;20131;-77
2022/08/13 06:19:43;;;;;;;4.38;1.60;;;23.60;96.70;;;;;;4960264;28;20106;-77
2022/08/13 06:22:20;;;;;;;2.28;1.35;;;23.70;96.70;;;;;;4955069;28;20126;-78
2022/08/13 06:24:51;;;;;;;2.00;1.38;;;23.70;96.70;;;;;;4933647;28;20047;-77
2022/08/13 06:27:23;;;;;;;1.77;1.48;;;23.80;96.70;;;;;;4955069;28;20070;-77
2022/08/13 06:30:18;;;;;;;2.58;1.27;;;23.90;96.70;;;;;;4952581;28;20047;-77
2022/08/13 06:33:01;;;;;;;3.63;1.40;;;23.90;96.70;;;;;;4961486;28;20050;-77
2022/08/13 06:35:51;;;;;;;2.63;1.70;;;23.90;96.70;;;;;;4957053;28;20525;-76
2022/08/13 06:38:30;;;;;;;3.70;2.85;;;23.90;96.70;;;;;;4960516;28;20050;-77
2022/08/13 06:41:00;;;;;;;;;;;23.90;96.70;;;;;;4963111;28;20046;-77
2022/08/13 06:43:30;;;;;;;3.78;2.40;;;24.00;96.70;;;;;;4950268;28;19926;-76
2022/08/13 06:46:18;;;;;;;4.05;2.80;;;23.90;96.70;;;;;;4964158;28;20043;-80
2022/08/13 06:48:57;;;;;;;4.45;2.10;;;23.80;96.70;;;;;;4962948;28;20070;-75
2022/08/13 06:51:31;;;;;;;4.55;2.05;;;23.90;96.70;;;;;;4964123;28;20066;-76
2022/08/13 06:54:08;;;;;;;2.67;1.58;;;24.00;96.70;;;;;;4963075;28;20057;-76
2022/08/13 06:56:56;;;;;;;3.38;1.98;;;23.90;96.70;;;;;;4962604;28;20047;-78
2022/08/13 06:59:45;;;;;;;2.35;1.60;;;24.00;96.70;;;;;;4958297;28;20529;-78
2022/08/13 07:02:35;;;;;;;2.33;1.70;;;24.10;96.70;;;;;;4960375;28;20133;-79
2022/08/13 07:05:05;;;;;;;2.85;1.50;;;24.00;96.70;;;;;;4961705;28;20053;-76
2022/08/13 07:07:38;;;;;;;2.92;1.70;;;23.80;96.70;;;;;;4963874;28;20105;-77
2022/08/13 07:10:10;;;;;;;2.72;1.80;;;23.80;96.70;;;;;;4962371;28;20146;-76
2022/08/13 07:12:42;;;;;;;2.83;1.60;;;23.70;96.70;;;;;;4961154;28;20042;-76
2022/08/13 07:15:15;;;;;;;1.88;1.50;;;23.70;96.70;;;;;;4960229;28;20485;-78
2022/08/13 07:17:51;;;;;;;1.67;1.58;;;23.90;96.70;;;;;;4964108;28;20492;-79
2022/08/13 07:20:22;;;;;;;2.35;1.58;;;23.80;96.70;;;;;;4965407;28;20986;-76
2022/08/13 07:22:56;;;;;;;27.40;24.70;;;24.00;96.70;;;;;;4963429;28;20057;-76
2022/08/13 07:25:47;;;;;;;9.75;7.75;;;24.00;96.70;;;;;;4965555;28;20055;-76
2022/08/13 07:28:26;;;;;;;5.32;4.20;;;24.10;96.70;;;;;;4962642;28;20042;-76
2022/08/13 07:31:15;;;;;;;3.42;2.67;;;24.10;96.70;;;;;;4961630;28;20046;-77
2022/08/13 07:33:48;;;;;;;5.70;2.53;;;24.10;96.70;;;;;;4975127;28;20039;-77
2022/08/13 07:36:27;;;;;;;3.15;1.70;;;24.20;96.70;;;;;;4956205;28;20054;-78
2022/08/13 07:38:56;;;;;;;3.85;1.83;;;24.30;96.70;;;;;;4955725;28;20055;-78
2022/08/13 07:41:27;;;;;;;3.25;1.30;;;24.30;96.70;;;;;;4963731;28;20054;-77
2022/08/13 07:43:59;;;;;;;2.08;1.42;;;24.40;96.70;;;;;;4961775;28;20054;-77
2022/08/13 07:46:45;;;;;;;2.90;1.30;;;24.50;96.70;;;;;;4958870;28;20458;-76
2022/08/13 07:49:24;;;;;;;3.00;1.50;;;24.60;96.70;;;;;;4964389;28;20058;-76
2022/08/13 07:52:13;;;;;;;3.80;1.70;;;24.50;96.70;;;;;;4955391;28;20074;-76
2022/08/13 07:54:44;;;;;;;2.85;1.52;;;24.40;96.70;;;;;;4961562;28;20060;-76
2022/08/13 07:57:18;;;;;;;3.20;1.75;;;24.30;96.70;;;;;;4963589;28;20579;-79
2022/08/13 08:00:17;;;;;;;4.10;1.67;;;24.40;96.70;;;;;;4959360;28;20047;-80
2022/08/13 08:02:55;;;;;;;2.20;1.48;;;24.40;96.70;;;;;;4959838;28;20685;-81
2022/08/13 08:05:25;;;;;;;1.75;1.38;;;24.30;96.70;;;;;;4961002;28;20523;-80
2022/08/13 08:08:08;;;;;;;4.28;1.20;;;24.40;96.70;;;;;;4965483;28;20047;-80
2022/08/13 08:10:40;;;;;;;2.75;1.50;;;24.70;96.70;;;;;;4965849;28;20583;-77
2022/08/13 08:13:12;;;;;;;1.88;1.20;;;24.90;96.70;;;;;;4960432;28;20051;-77
2022/08/13 08:15:45;;;;;;;2.22;1.15;;;24.90;96.70;;;;;;4962560;28;20295;-76
2022/08/13 08:18:33;;;;;;;1.65;0.93;;;25.00;96.70;;;;;;4957017;28;20047;-77
2022/08/13 08:21:23;;;;;;;2.03;1.38;;;24.90;96.70;;;;;;4956507;28;20050;-76
2022/08/13 08:24:13;;;;;;;4.28;3.50;;;24.90;96.70;;;;;;4956633;28;20042;-77
2022/08/13 08:26:58;;;;;;;13.35;11.93;;;25.10;96.70;;;;;;4960587;28;20662;-77
2022/08/13 08:29:31;;;;;;;3.00;2.70;;;25.10;96.70;;;;;;4955525;28;20677;-78
2022/08/13 08:32:07;;;;;;;2.53;1.80;;;25.20;96.70;;;;;;4962102;28;20065;-78
2022/08/13 08:34:39;;;;;;;3.47;1.90;;;25.20;96.70;;;;;;4958925;28;20093;-78
2022/08/13 08:42:35;;;;;;;2.13;1.70;;;25.30;96.70;;;;;;4961197;28;20122;-78
2022/08/13 08:43:02;;;;;;;1.50;1.38;;;25.30;96.70;;;;;;4961403;28;20045;-77
2022/08/13 08:45:52;;;;;;;2.00;1.40;;;25.40;96.70;;;;;;4959883;28;20043;-78
2022/08/13 08:48:41;;;;;;;1.55;1.27;;;25.60;96.70;;;;;;4959891;28;20440;-80
2022/08/13 08:51:22;;;;;;;2.45;1.70;;;25.70;96.70;;;;;;4959798;28;20036;-79
2022/08/13 08:53:52;;;;;;;1.50;0.90;;;25.60;96.70;;;;;;4958243;28;20110;-79
2022/08/13 08:56:41;;;;;;;2.97;1.10;;;25.50;96.70;;;;;;4957671;28;20047;-78
2022/08/13 08:59:26;;;;;;;1.25;1.13;;;25.60;96.70;;;;;;4958586;28;20580;-76
2022/08/13 09:01:57;;;;;;;1.67;1.13;;;25.80;96.70;;;;;;4956387;28;20090;-76
2022/08/13 09:04:29;;;;;;;3.50;1.15;;;25.90;96.70;;;;;;4954156;28;20133;-76
2022/08/13 09:07:18;;;;;;;2.13;1.00;;;25.90;96.70;;;;;;4959772;28;20050;-77
2022/08/13 09:09:51;;;;;;;2.33;1.08;;;25.90;96.70;;;;;;4956332;28;20054;-78
2022/08/13 09:12:25;;;;;;;2.38;1.10;;;25.90;96.70;;;;;;4956128;28;20073;-78
2022/08/13 09:14:56;;;;;;;2.70;1.17;;;26.00;96.70;;;;;;4943815;28;20055;-78
2022/08/13 09:17:27;;;;;;;2.85;1.20;;;26.00;96.70;;;;;;4963421;28;20470;-76
2022/08/13 09:20:12;;;;;;;24.23;21.55;;;26.00;96.70;;;;;;4954925;28;20125;-77
2022/08/13 09:22:42;;;;;;;20.23;18.30;;;26.00;96.70;;;;;;4968754;28;20530;-77
2022/08/13 09:25:23;;;;;;;5.13;3.33;;;26.00;96.70;;;;;;4963209;28;20704;-75
2022/08/13 09:27:54;;;;;;;2.30;1.48;;;26.10;96.70;;;;;;4959617;28;20055;-77
2022/08/13 09:30:42;;;;;;;4.30;2.85;;;26.30;96.70;;;;;;4946466;28;20046;-79
2022/08/13 09:33:18;;;;;;;5.28;3.15;;;26.30;96.70;;;;;;4937512;28;20055;-80
2022/08/13 09:36:09;;;;;;;1.45;1.35;;;26.50;96.70;;;;;;4959594;28;20046;-77
2022/08/13 09:38:49;;;;;;;3.42;1.27;;;26.70;96.70;;;;;;4960527;28;20053;-76
2022/08/13 09:41:24;;;;;;;3.08;1.38;;;26.90;96.70;;;;;;4959008;28;20967;-75
2022/08/13 09:43:57;;;;;;;2.95;1.50;;;26.90;96.70;;;;;;4954430;28;20071;-79
2022/08/13 09:46:25;;;;;;;1.77;1.55;;;27.00;96.70;;;;;;4959565;28;20092;-78
2022/08/13 09:49:25;;;;;;;1.40;1.10;;;27.00;96.70;;;;;;4959642;28;20468;-79
2022/08/13 09:52:13;;;;;;;2.92;1.52;;;27.10;96.70;;;;;;4903763;29;20075;-78
2022/08/13 09:54:46;;;;;;;1.50;1.17;;;27.30;96.70;;;;;;4921942;29;20057;-79
2022/08/13 09:57:20;;;;;;;2.97;0.85;;;27.40;96.70;;;;;;4920448;29;20261;-80
2022/08/13 09:59:51;;;;;;;1.70;1.30;;;27.30;96.70;;;;;;4923931;29;20055;-79
2022/08/13 10:02:25;;;;;;;2.45;1.30;;;27.30;96.70;;;;;;4906350;29;20776;-78
2022/08/13 10:04:57;;;;;;;1.85;1.00;;;27.30;96.70;;;;;;4890830;29;20131;-76
2022/08/13 10:07:25;;;;;;;2.13;0.98;;;27.20;96.70;;;;;;4923717;29;20083;-78
2022/08/13 10:09:54;;;;;;;1.98;1.05;;;27.30;96.70;;;;;;4904955;29;20411;-78
2022/08/13 10:12:43;;;;;;;1.30;1.00;;;27.50;96.70;;;;;;4907971;29;20059;-79
2022/08/13 10:15:13;;;;;;;1.42;1.02;;;27.60;96.70;;;;;;4923606;29;20502;-78
2022/08/13 10:17:55;;;;;;;3.95;1.10;;;27.80;96.70;;;;;;4908461;29;20139;-77
2022/08/13 10:20:33;;;;;;;4.93;1.42;;;28.00;96.70;;;;;;4910362;29;20414;-76
2022/08/13 10:23:03;;;;;;;8.90;7.75;;;28.20;96.70;;;;;;4919046;28;20126;-78
2022/08/13 10:25:31;;;;;;;3.75;3.05;;;28.30;96.70;;;;;;4962139;28;20043;-77
2022/08/13 10:28:17;;;;;;;2.67;1.38;;;28.40;96.70;;;;;;4964760;28;20066;-78
2022/08/13 10:30:58;;;;;;;2.17;1.08;;;28.50;96.70;;;;;;4960564;28;20090;-77
2022/08/13 10:33:47;;;;;;;2.25;1.00;;;28.70;96.70;;;;;;4953357;28;20061;-77
2022/08/13 10:36:17;;;;;;;2.22;1.27;;;28.80;96.70;;;;;;4960272;28;20139;-83
2022/08/13 10:38:45;;;;;;;1.65;0.90;;;29.00;96.70;;;;;;4957833;28;20043;-82
2022/08/13 10:41:20;;;;;;;1.85;1.20;;;29.00;96.70;;;;;;4980855;28;20047;-86
2022/08/13 10:43:48;;;;;;;1.98;1.00;;;28.80;96.70;;;;;;4968692;28;20058;-80
2022/08/13 10:46:29;;;;;;;1.98;0.93;;;28.80;96.70;;;;;;4959593;28;20062;-80
2022/08/13 10:49:01;;;;;;;2.13;1.00;;;28.90;96.70;;;;;;4962502;28;20054;-80
2022/08/13 10:51:32;;;;;;;9.70;1.52;;;29.10;96.70;;;;;;4963161;28;20508;-82
2022/08/13 10:54:12;;;;;;;1.90;1.00;;;29.30;96.70;;;;;;4962435;28;20130;-83
2022/08/13 10:56:58;;;;;;;2.17;1.00;;;29.50;96.70;;;;;;4959672;28;20177;-81
2022/08/13 10:59:27;;;;;;;1.73;1.00;;;29.70;96.70;;;;;;4952689;28;20065;-84
2022/08/13 11:01:56;;;;;;;2.00;1.10;;;29.80;96.70;;;;;;4970527;28;20093;-83
2022/08/13 11:04:26;;;;;;;1.83;1.15;;;30.00;96.70;;;;;;4967453;28;20441;-85
2022/08/13 11:06:59;;;;;;;2.05;1.00;;;29.80;96.70;;;;;;4969280;28;20072;-84
2022/08/13 11:09:29;;;;;;;2.95;1.08;;;29.90;96.70;;;;;;4965635;28;20585;-83
2022/08/13 11:12:07;;;;;;;1.88;0.95;;;30.10;96.70;;;;;;4957874;28;20485;-82
2022/08/13 11:14:36;;;;;;;0.70;0.70;;;30.20;96.70;;;;;;4960440;28;20042;-84
2022/08/13 11:17:09;;;;;;;1.25;1.13;;;29.80;96.20;;;;;;4946260;28;20118;-83
2022/08/13 11:20:03;;;;;;;2.63;1.00;;;29.70;96.70;;;;;;4972252;28;20098;-85
2022/08/13 11:22:37;;;;;;;2.10;1.08;;;30.00;96.70;;;;;;4959269;28;20042;-85
2022/08/13 11:25:07;;;;;;;1.92;0.90;;;30.00;96.50;;;;;;4963439;28;20039;-87
2022/08/13 11:27:55;;;;;;;3.33;1.23;;;30.00;95.90;;;;;;4948309;28;20675;-84
2022/08/13 11:30:24;;;;;;;2.13;1.00;;;30.20;96.20;;;;;;4963286;28;20075;-83
2022/08/13 11:33:05;;;;;;;2.90;1.10;;;30.50;95.60;;;;;;4960540;28;20572;-83
2022/08/13 11:35:41;;;;;;;3.83;1.15;;;30.70;94.90;;;;;;4966572;28;20043;-82
2022/08/13 11:38:18;;;;;;;;;;;30.80;93.70;;;;;;4950319;28;20067;-84
2022/08/13 11:40:48;;;;;;;1.30;0.90;;;30.70;94.30;;;;;;4963040;28;19930;-87
2022/08/13 11:43:21;;;;;;;2.03;1.10;;;30.60;94.20;;;;;;4966224;28;20142;-78
2022/08/13 11:45:49;;;;;;;5.10;4.60;;;30.80;93.80;;;;;;4963050;28;20047;-78
2022/08/13 11:48:17;;;;;;;4.80;3.80;;;30.80;93.10;;;;;;4961829;28;20054;-77
2022/08/13 11:50:57;;;;;;;3.17;1.67;;;31.00;92.20;;;;;;4961285;28;20509;-79
2022/08/13 11:53:27;;;;;;;1.77;1.20;;;31.30;91.70;;;;;;4961358;28;20038;-77
2022/08/13 11:55:57;;;;;;;1.58;1.40;;;31.20;90.50;;;;;;4964987;28;20043;-79
2022/08/13 11:58:33;;;;;;;5.28;1.42;;;31.10;91.10;;;;;;4961118;28;20493;-78
2022/08/13 12:01:21;;;;;;;1.83;0.90;;;31.50;90.70;;;;;;4964183;28;20030;-78
2022/08/13 12:03:53;;;;;;;1.92;1.00;;;31.80;89.60;;;;;;4961370;28;20055;-77
2022/08/13 12:06:42;;;;;;;1.10;1.00;;;32.00;88.40;;;;;;4951376;28;20069;-79
2022/08/13 12:09:19;;;;;;;1.95;1.23;;;32.10;88.60;;;;;;4960323;28;20055;-78
2022/08/13 12:12:08;;;;;;;1.20;1.10;;;32.10;88.10;;;;;;4961609;28;20134;-82
2022/08/13 12:14:47;;;;;;;1.02;0.85;;;32.10;87.90;;;;;;4964107;28;20436;-78
2022/08/13 12:17:16;;;;;;;1.48;1.00;;;32.00;87.10;;;;;;4964757;28;20059;-77
2022/08/13 12:20:06;;;;;;;1.92;1.10;;;32.00;87.60;;;;;;4954099;28;20046;-77
2022/08/13 12:22:49;;;;;;;1.48;1.02;;;32.10;88.30;;;;;;4964143;28;20050;-79
2022/08/13 12:25:21;;;;;;;1.45;1.00;;;32.40;87.20;;;;;;4959346;28;20053;-78
2022/08/13 12:28:15;;;;;;;0.93;0.70;;;32.60;86.60;;;;;;4950126;28;20257;-78
2022/08/13 12:30:56;;;;;;;1.63;1.10;;;32.70;86.40;;;;;;4960290;28;20144;-79
2022/08/13 12:33:25;;;;;;;3.33;0.95;;;32.40;85.00;;;;;;4959803;28;20552;-78
2022/08/13 12:36:06;;;;;;;5.18;4.68;;;32.30;84.90;;;;;;4960605;28;20051;-77
2022/08/13 12:38:36;;;;;;;5.10;2.78;;;32.30;85.90;;;;;;4957036;28;20050;-76
2022/08/13 12:41:06;;;;;;;3.30;1.10;;;32.20;85.40;;;;;;4961185;28;20038;-81
2022/08/13 12:43:46;;;;;;;1.02;0.98;;;32.30;85.60;;;;;;4961185;28;20138;-78
2022/08/13 12:46:34;;;;;;;1.73;1.10;;;32.70;85.50;;;;;;4962487;28;20046;-79
2022/08/13 12:49:03;;;;;;;1.10;1.00;;;32.90;85.40;;;;;;4958491;28;20045;-79
2022/08/13 12:51:40;;;;;;;0.80;0.73;;;33.00;84.10;;;;;;4958979;28;20745;-78
2022/08/13 12:54:24;;;;;;;2.55;1.20;;;33.20;84.40;;;;;;4960088;28;20444;-77
2022/08/13 12:57:14;;;;;;;2.33;1.15;;;33.30;83.80;;;;;;4959951;28;20055;-78
2022/08/13 13:00:04;;;;;;;0.95;0.70;;;33.00;83.00;;;;;;4949879;28;20138;-76
2022/08/13 13:02:39;;;;;;;1.10;0.80;;;32.40;80.70;;;;;;4960827;28;20050;-79
2022/08/13 13:05:07;;;;;;;2.30;0.75;;;32.10;82.10;;;;;;4961682;28;20137;-81
2022/08/13 13:07:47;;;;;;;4.40;1.20;;;32.10;80.60;;;;;;4948912;28;20619;-79
2022/08/13 13:10:36;;;;;;;1.17;0.80;;;32.10;81.80;;;;;;4961442;28;20059;-79
2022/08/13 13:13:06;;;;;;;1.13;0.70;;;32.30;81.30;;;;;;4956366;28;20121;-81
2022/08/13 13:15:56;;;;;;;1.35;0.82;;;32.10;79.30;;;;;;4954093;28;20062;-79
2022/08/13 13:18:44;;;;;;;1.40;0.75;;;32.40;80.50;;;;;;4960746;28;20632;-80
2022/08/13 13:21:26;;;;;;;2.80;0.60;;;32.90;80.80;;;;;;4964118;28;20034;-81
2022/08/13 13:24:07;;;;;;;1.10;1.00;;;33.20;81.30;;;;;;4961314;28;20158;-80
2022/08/13 13:26:50;;;;;;;0.77;0.60;;;33.40;81.20;;;;;;4958163;28;20505;-79
2022/08/13 13:29:32;;;;;;;3.60;0.77;;;33.50;81.40;;;;;;4957702;28;20042;-82
2022/08/13 13:32:06;;;;;;;1.35;0.70;;;33.80;81.20;;;;;;4963963;28;20042;-78
2022/08/13 13:34:55;;;;;;;2.13;0.95;;;33.80;80.40;;;;;;4961888;28;20036;-79
2022/08/13 13:37:27;;;;;;;1.83;0.63;;;33.80;80.00;;;;;;4945331;28;20082;-79
2022/08/13 13:40:15;;;;;;;3.28;1.73;;;34.00;78.80;;;;;;4959008;28;20051;-79
2022/08/13 13:42:43;;;;;;;4.97;1.40;;;34.50;77.50;;;;;;4963529;28;20456;-79
2022/08/13 13:45:22;;;;;;;1.52;0.80;;;34.70;78.10;;;;;;4957293;28;20452;-84
2022/08/13 13:47:52;;;;;;;1.80;0.90;;;34.40;76.60;;;;;;4961208;28;20581;-85
2022/08/13 13:50:20;;;;;;;2.38;0.70;;;34.40;77.10;;;;;;4962589;28;20085;-83
2022/08/13 13:52:59;;;;;;;2.15;0.68;;;34.50;77.50;;;;;;4966620;28;20047;-79